Time;durP1;ratioP1;P1;durP2;ratioP2;P2;SDS_P1;SDS_P2;PMS_P1;PMS_P2;Temp;Humidity;BMP_temperature;BMP_pressure;BME280_temperature;BME280_humidity;BME280_pressure;Samples;Min_cycle;Max_cycle;Signal;HPM_P1;HPM_P2
2022/03/15 00:01:05;;;;;;;;;;;20.20;35.30;;;;;;5028780;28;20009;-48
2022/03/15 00:03:33;;;;;;;;;;;20.20;35.30;;;;;;5067239;28;20027;-44
2022/03/15 00:06:02;;;;;;;;;;;20.20;35.30;;;;;;5048023;28;20404;-44
2022/03/15 00:08:30;;;;;;;;;;;20.20;35.30;;;;;;5051976;28;20148;-43
2022/03/15 00:10:58;;;;;;;;;;;20.20;35.30;;;;;;5045771;28;19971;-43
2022/03/15 00:13:26;;;;;;;;;;;20.20;35.40;;;;;;5038334;28;19975;-44
2022/03/15 00:15:54;;;;;;;;;;;20.20;35.40;;;;;;5045510;28;19924;-43
2022/03/15 00:18:22;;;;;;;;;;;20.20;35.40;;;;;;5053159;28;19963;-44
2022/03/15 00:20:49;;;;;;;;;;;20.20;35.40;;;;;;5053798;28;20266;-43
2022/03/15 00:23:16;;;;;;;;;;;20.20;35.40;;;;;;5056762;28;19920;-45
2022/03/15 00:25:43;;;;;;;;;;;20.20;35.40;;;;;;5051222;28;19929;-45
2022/03/15 00:28:10;;;;;;;;;;;20.20;35.50;;;;;;5070863;28;19921;-42
2022/03/15 00:30:37;;;;;;;;;;;20.20;35.40;;;;;;5038481;28;19920;-47
2022/03/15 00:33:04;;;;;;;;;;;20.20;35.40;;;;;;5061674;28;19967;-42
2022/03/15 00:35:32;;;;;;;;;;;20.20;35.40;;;;;;5045476;28;19927;-42
2022/03/15 00:37:59;;;;;;;;;;;20.20;35.50;;;;;;5048930;28;19929;-44
2022/03/15 00:40:26;;;;;;;;;;;20.20;35.50;;;;;;5038171;28;20042;-46
2022/03/15 00:42:55;;;;;;;;;;;20.20;35.50;;;;;;5033974;28;19921;-42
2022/03/15 00:45:23;;;;;;;;;;;20.20;35.50;;;;;;5032257;28;19920;-44
2022/03/15 00:47:50;;;;;;;;;;;20.20;35.50;;;;;;5066724;28;19986;-44
2022/03/15 00:50:17;;;;;;;;;;;20.20;35.50;;;;;;5053259;28;19931;-46
2022/03/15 00:52:45;;;;;;;;;;;20.20;35.50;;;;;;5052290;28;19959;-41
2022/03/15 00:55:12;;;;;;;;;;;20.20;35.50;;;;;;5037357;28;19976;-44
2022/03/15 00:57:38;;;;;;;;;;;20.20;35.50;;;;;;5059022;28;20028;-42
2022/03/15 01:00:06;;;;;;;;;;;20.20;35.50;;;;;;5044798;28;19967;-43
2022/03/15 01:02:32;;;;;;;;;;;20.20;35.60;;;;;;5052259;28;20431;-42
2022/03/15 01:05:02;;;;;;;;;;;20.20;35.50;;;;;;5053395;28;19920;-44
2022/03/15 01:07:28;;;;;;;;;;;20.20;35.50;;;;;;5037813;28;20576;-48
2022/03/15 01:09:56;;;;;;;;;;;20.20;35.50;;;;;;5042230;28;20110;-41
2022/03/15 01:12:23;;;;;;;;;;;20.20;35.50;;;;;;5069169;28;20382;-46
2022/03/15 01:14:50;;;;;;;;;;;20.20;35.50;;;;;;5070877;28;19924;-47
2022/03/15 01:17:16;;;;;;;;;;;20.20;35.60;;;;;;5042961;28;19971;-47
2022/03/15 01:19:43;;;;;;;;;;;20.20;35.60;;;;;;5044349;28;19920;-42
2022/03/15 01:22:10;;;;;;;;;;;20.20;35.60;;;;;;5039789;28;19955;-46
2022/03/15 01:24:37;;;;;;;;;;;20.20;35.60;;;;;;5032925;28;19929;-43
2022/03/15 01:27:05;;;;;;;;;;;20.20;35.60;;;;;;5058758;28;19921;-41
2022/03/15 01:29:32;;;;;;;;;;;20.20;35.60;;;;;;5047199;28;19962;-45
2022/03/15 01:32:00;;;;;;;;;;;20.20;35.60;;;;;;5051629;28;19920;-46
2022/03/15 01:34:27;;;;;;;;;;;20.20;35.60;;;;;;5052252;28;20399;-45
2022/03/15 01:36:54;;;;;;;;;;;20.20;35.60;;;;;;5052466;28;19924;-44
2022/03/15 01:39:21;;;;;;;;;;;20.20;35.60;;;;;;5057345;28;19974;-49
2022/03/15 01:41:47;;;;;;;;;;;20.20;35.70;;;;;;5070129;28;19952;-48
2022/03/15 01:44:16;;;;;;;;;;;20.20;35.70;;;;;;5042914;28;20324;-45
2022/03/15 01:46:43;;;;;;;;;;;20.20;35.60;;;;;;5049230;28;19971;-44
2022/03/15 01:49:10;;;;;;;;;;;20.20;35.70;;;;;;5057722;28;19927;-43
2022/03/15 01:51:40;;;;;;;;;;;20.20;35.70;;;;;;5052062;28;19963;-45
2022/03/15 01:54:07;;;;;;;;;;;20.20;35.70;;;;;;5055299;28;19929;-43
2022/03/15 01:56:34;;;;;;;;;;;20.20;35.70;;;;;;5041142;28;19971;-47
2022/03/15 01:59:01;;;;;;;;;;;20.20;35.60;;;;;;5039344;28;20336;-43
2022/03/15 02:01:29;;;;;;;;;;;20.20;35.70;;;;;;5051906;28;19921;-46
2022/03/15 02:03:56;;;;;;;;;;;20.20;35.80;;;;;;5056838;28;19928;-47
2022/03/15 02:06:23;;;;;;;;;;;20.20;35.70;;;;;;5068083;28;19928;-45
2022/03/15 02:08:49;;;;;;;;;;;20.20;35.70;;;;;;5064173;28;19930;-44
2022/03/15 02:11:17;;;;;;;;;;;20.20;35.70;;;;;;5053434;28;19939;-44
2022/03/15 02:13:44;;;;;;;;;;;20.20;35.70;;;;;;5049050;28;19921;-43
2022/03/15 02:16:11;;;;;;;;;;;20.20;35.70;;;;;;5047100;28;20022;-46
2022/03/15 02:18:41;;;;;;;;;;;20.20;35.70;;;;;;5047279;28;19931;-42
2022/03/15 02:21:10;;;;;;;;;;;20.20;35.70;;;;;;5071875;28;19920;-47
2022/03/15 02:23:37;;;;;;;;;;;20.20;35.70;;;;;;5048647;28;20426;-47
2022/03/15 02:26:04;;;;;;;;;;;20.20;35.70;;;;;;5070543;28;19943;-47
2022/03/15 02:28:31;;;;;;;;;;;20.20;35.70;;;;;;5046689;28;19928;-47
2022/03/15 02:30:57;;;;;;;;;;;20.20;35.70;;;;;;5042817;28;20004;-47
2022/03/15 02:33:24;;;;;;;;;;;20.20;35.70;;;;;;5046523;28;20404;-42
2022/03/15 02:35:51;;;;;;;;;;;20.10;35.60;;;;;;5051719;28;19920;-47
2022/03/15 02:38:21;;;;;;;;;;;20.20;35.70;;;;;;5040137;28;20308;-48
2022/03/15 02:40:48;;;;;;;;;;;20.20;35.70;;;;;;5058099;28;19959;-44
2022/03/15 02:43:16;;;;;;;;;;;20.20;35.70;;;;;;5051344;28;20971;-43
2022/03/15 02:45:43;;;;;;;;;;;20.20;35.70;;;;;;5051764;28;20034;-46
2022/03/15 02:48:10;;;;;;;;;;;20.20;35.70;;;;;;5049620;28;20091;-47
2022/03/15 02:50:36;;;;;;;;;;;20.20;35.70;;;;;;5044220;28;20273;-46
2022/03/15 02:53:03;;;;;;;;;;;20.20;35.70;;;;;;5043064;28;20312;-44
2022/03/15 02:55:33;;;;;;;;;;;20.20;35.70;;;;;;5053655;28;20272;-48
2022/03/15 02:58:00;;;;;;;;;;;20.20;35.70;;;;;;5066600;28;19925;-45
2022/03/15 03:00:28;;;;;;;;;;;20.20;35.70;;;;;;5042730;28;19924;-43
2022/03/15 03:02:54;;;;;;;;;;;20.20;35.70;;;;;;5055374;28;20338;-46
2022/03/15 03:05:21;;;;;;;;;;;20.20;35.70;;;;;;5054559;28;19921;-47
2022/03/15 03:07:48;;;;;;;;;;;20.20;35.70;;;;;;5055977;28;19921;-43
2022/03/15 03:10:16;;;;;;;;;;;20.20;35.70;;;;;;5046790;28;19956;-43
2022/03/15 03:12:44;;;;;;;;;;;20.20;35.70;;;;;;5049132;28;19920;-46
2022/03/15 03:15:12;;;;;;;;;;;20.20;35.80;;;;;;5071393;28;19921;-44
2022/03/15 03:17:40;;;;;;;;;;;20.20;35.70;;;;;;5064284;28;19982;-43
2022/03/15 03:20:08;;;;;;;;;;;20.20;35.70;;;;;;5051986;28;20340;-44
2022/03/15 03:22:35;;;;;;;;;;;20.20;35.70;;;;;;5056468;28;19921;-47
2022/03/15 03:25:02;;;;;;;;;;;20.10;35.70;;;;;;5046407;28;19921;-45
2022/03/15 03:27:29;;;;;;;;;;;20.10;35.60;;;;;;5039465;28;19920;-46
2022/03/15 03:29:57;;;;;;;;;;;20.10;35.70;;;;;;5044885;28;20309;-46
2022/03/15 03:32:24;;;;;;;;;;;20.10;35.60;;;;;;5065237;28;19947;-46
2022/03/15 03:34:51;;;;;;;;;;;20.10;35.60;;;;;;5044053;28;20423;-46
2022/03/15 03:37:18;;;;;;;;;;;20.10;35.60;;;;;;5048056;28;19925;-43
2022/03/15 03:39:45;;;;;;;;;;;20.10;35.60;;;;;;5061187;28;19925;-42
2022/03/15 03:42:12;;;;;;;;;;;20.20;35.80;;;;;;5069614;28;19920;-44
2022/03/15 03:44:42;;;;;;;;;;;20.20;35.80;;;;;;5046655;28;19920;-43
2022/03/15 03:47:10;;;;;;;;;;;20.10;35.70;;;;;;5047305;28;19925;-43
2022/03/15 03:49:37;;;;;;;;;;;20.20;35.70;;;;;;5038395;28;20336;-43
2022/03/15 03:52:05;;;;;;;;;;;20.10;35.60;;;;;;5053285;28;19947;-43
2022/03/15 03:54:32;;;;;;;;;;;20.20;35.80;;;;;;5053857;28;19986;-48
2022/03/15 03:56:58;;;;;;;;;;;20.10;35.70;;;;;;5043656;28;20015;-44
2022/03/15 03:59:25;;;;;;;;;;;20.10;35.70;;;;;;5043147;28;19924;-44
2022/03/15 04:01:52;;;;;;;;;;;20.10;35.70;;;;;;5054621;28;19920;-45
2022/03/15 04:04:20;;;;;;;;;;;20.10;35.60;;;;;;5058937;28;20332;-49
2022/03/15 04:06:47;;;;;;;;;;;20.10;35.60;;;;;;5052273;28;19920;-45
2022/03/15 04:09:14;;;;;;;;;;;20.10;35.60;;;;;;5039305;28;19944;-42
2022/03/15 04:11:41;;;;;;;;;;;20.10;35.70;;;;;;5051407;28;20392;-46
2022/03/15 04:14:08;;;;;;;;;;;20.10;35.70;;;;;;5054756;28;20019;-42
2022/03/15 04:16:35;;;;;;;;;;;20.10;35.70;;;;;;5048492;28;20352;-47
2022/03/15 04:19:02;;;;;;;;;;;20.10;35.70;;;;;;5053740;28;19995;-45
2022/03/15 04:21:30;;;;;;;;;;;20.10;35.70;;;;;;5052706;28;20308;-44
2022/03/15 04:23:56;;;;;;;;;;;20.20;35.80;;;;;;5052775;28;19921;-46
2022/03/15 04:26:23;;;;;;;;;;;20.10;35.70;;;;;;5060378;28;20282;-44
2022/03/15 04:28:50;;;;;;;;;;;20.10;35.70;;;;;;5070592;28;19973;-44
2022/03/15 04:31:17;;;;;;;;;;;20.10;35.70;;;;;;5046791;28;20012;-43
2022/03/15 04:33:43;;;;;;;;;;;20.10;35.70;;;;;;5053194;28;19941;-43
2022/03/15 04:36:10;;;;;;;;;;;20.10;35.70;;;;;;5058591;28;19920;-44
2022/03/15 04:38:38;;;;;;;;;;;20.10;35.70;;;;;;5071225;28;19974;-46
2022/03/15 04:41:06;;;;;;;;;;;20.10;35.70;;;;;;5045954;28;20277;-43
2022/03/15 04:43:33;;;;;;;;;;;20.10;35.70;;;;;;5034921;28;19928;-43
2022/03/15 04:45:59;;;;;;;;;;;20.10;35.60;;;;;;5039357;28;19928;-43
2022/03/15 04:48:26;;;;;;;;;;;20.10;35.70;;;;;;5043257;28;20337;-48
2022/03/15 04:50:53;;;;;;;;;;;20.10;35.70;;;;;;5038166;28;20191;-45
2022/03/15 04:53:20;;;;;;;;;;;20.10;35.70;;;;;;5039316;28;19928;-44
2022/03/15 04:55:48;;;;;;;;;;;20.10;35.60;;;;;;5036801;28;19921;-45
2022/03/15 04:58:15;;;;;;;;;;;20.10;35.60;;;;;;5045017;28;19925;-43
2022/03/15 05:00:42;;;;;;;;;;;20.10;35.70;;;;;;5068833;28;19942;-45
2022/03/15 05:03:09;;;;;;;;;;;20.10;35.70;;;;;;5050962;28;19960;-45
2022/03/15 05:05:36;;;;;;;;;;;20.10;35.70;;;;;;5043230;28;20014;-44
2022/03/15 05:08:03;;;;;;;;;;;20.10;35.60;;;;;;5050853;28;19927;-46
2022/03/15 05:13:16;;;;;;;;;;;20.10;35.60;;;;;;5036091;28;19920;-46
2022/03/15 05:15:43;;;;;;;;;;;20.10;35.70;;;;;;5044782;28;19983;-43
2022/03/15 05:18:10;;;;;;;;;;;20.10;35.70;;;;;;5050030;28;19920;-45
2022/03/15 05:20:36;;;;;;;;;;;20.10;35.60;;;;;;5071483;28;19955;-44
2022/03/15 05:23:03;;;;;;;;;;;20.10;35.60;;;;;;5051143;28;19928;-45
2022/03/15 05:25:30;;;;;;;;;;;20.10;35.60;;;;;;5044999;28;20015;-43
2022/03/15 05:27:58;;;;;;;;;;;20.10;35.60;;;;;;5067029;28;19925;-44
2022/03/15 05:30:27;;;;;;;;;;;20.10;35.60;;;;;;5051189;28;19931;-43
2022/03/15 05:32:54;;;;;;;;;;;20.10;35.60;;;;;;5045885;28;19988;-45
2022/03/15 05:35:21;;;;;;;;;;;20.10;35.70;;;;;;5042924;28;19927;-43
2022/03/15 05:37:48;;;;;;;;;;;20.10;35.60;;;;;;5043424;28;20373;-43
2022/03/15 05:40:15;;;;;;;;;;;20.10;35.60;;;;;;5068555;28;19920;-45
2022/03/15 05:42:41;;;;;;;;;;;20.10;35.60;;;;;;5036842;28;20427;-45
2022/03/15 05:45:08;;;;;;;;;;;20.10;35.60;;;;;;5039449;28;19997;-45
2022/03/15 05:47:36;;;;;;;;;;;20.10;35.60;;;;;;5062980;28;19921;-43
2022/03/15 05:50:07;;;;;;;;;;;20.10;35.70;;;;;;5030944;28;19998;-43
2022/03/15 05:52:33;;;;;;;;;;;20.10;35.60;;;;;;5037937;28;20358;-46
2022/03/15 05:55:00;;;;;;;;;;;20.10;35.60;;;;;;5036308;28;19931;-43
2022/03/15 05:57:27;;;;;;;;;;;20.10;35.60;;;;;;5036889;28;19967;-47
2022/03/15 05:59:53;;;;;;;;;;;20.10;35.60;;;;;;5031878;28;19927;-47
2022/03/15 06:02:20;;;;;;;;;;;20.10;35.60;;;;;;5044276;28;19926;-49
2022/03/15 06:04:48;;;;;;;;;;;20.10;35.60;;;;;;5044298;28;20381;-42
2022/03/15 06:07:15;;;;;;;;;;;20.10;35.60;;;;;;5058919;28;20022;-45
2022/03/15 06:09:42;;;;;;;;;;;20.10;35.60;;;;;;5031400;28;20024;-46
2022/03/15 06:12:10;;;;;;;;;;;20.10;35.60;;;;;;5044379;28;20250;-44
2022/03/15 06:14:36;;;;;;;;;;;20.10;35.60;;;;;;5055780;28;19921;-43
2022/03/15 06:17:04;;;;;;;;;;;20.10;35.50;;;;;;5037259;28;19989;-48
2022/03/15 06:19:31;;;;;;;;;;;20.10;35.50;;;;;;5041871;28;19920;-43
2022/03/15 06:21:59;;;;;;;;;;;20.10;35.50;;;;;;5040148;28;20220;-48
2022/03/15 06:24:26;;;;;;;;;;;20.10;35.60;;;;;;5043156;28;20274;-47
2022/03/15 06:26:53;;;;;;;;;;;20.10;35.50;;;;;;5045664;28;19927;-44
2022/03/15 06:29:20;;;;;;;;;;;20.10;35.50;;;;;;5059615;28;19924;-43
2022/03/15 06:31:47;;;;;;;;;;;20.10;35.60;;;;;;5042655;28;19920;-44
2022/03/15 06:34:14;;;;;;;;;;;20.10;35.50;;;;;;5060153;28;19986;-49
2022/03/15 06:36:51;;;;;;;;;;;20.10;35.60;;;;;;5061099;28;19924;-47
2022/03/15 06:39:19;;;;;;;;;;;20.10;35.50;;;;;;5063198;28;19994;-44
2022/03/15 06:41:46;;;;;;;;;;;20.10;35.50;;;;;;5046203;28;19924;-44
2022/03/15 06:44:13;;;;;;;;;;;20.10;35.60;;;;;;5042973;28;19921;-47
2022/03/15 06:46:40;;;;;;;;;;;20.10;35.50;;;;;;5043978;28;19924;-46
2022/03/15 06:49:07;;;;;;;;;;;20.10;35.50;;;;;;5041368;28;19920;-47
2022/03/15 06:51:34;;;;;;;;;;;20.10;35.60;;;;;;5060486;28;19920;-45
2022/03/15 06:54:01;;;;;;;;;;;20.10;35.50;;;;;;5066925;28;20019;-48
2022/03/15 06:56:30;;;;;;;;;;;20.10;35.50;;;;;;5047560;28;19925;-45
2022/03/15 06:58:56;;;;;;;;;;;20.10;35.50;;;;;;5045907;28;19927;-43
2022/03/15 07:01:23;;;;;;;;;;;20.10;35.50;;;;;;5049510;28;19928;-44
2022/03/15 07:03:50;;;;;;;;;;;20.10;35.50;;;;;;5044658;28;19924;-46
2022/03/15 07:06:17;;;;;;;;;;;20.10;35.50;;;;;;5060938;28;19921;-46
2022/03/15 07:08:44;;;;;;;;;;;20.10;35.50;;;;;;5054245;28;19921;-43
2022/03/15 07:11:10;;;;;;;;;;;20.10;35.50;;;;;;5060830;28;19921;-44
2022/03/15 07:13:38;;;;;;;;;;;20.10;35.50;;;;;;5043352;28;19963;-47
2022/03/15 07:16:05;;;;;;;;;;;20.10;35.50;;;;;;5045103;28;19978;-47
2022/03/15 07:18:32;;;;;;;;;;;20.10;35.50;;;;;;5042994;28;19931;-45
2022/03/15 07:20:59;;;;;;;;;;;20.10;35.50;;;;;;5045455;28;20403;-47
2022/03/15 07:23:28;;;;;;;;;;;20.10;35.50;;;;;;5063566;28;19924;-48
2022/03/15 07:25:54;;;;;;;;;;;20.10;35.50;;;;;;5041650;28;19936;-44
2022/03/15 07:28:21;;;;;;;;;;;20.10;35.50;;;;;;5059828;28;20000;-44
2022/03/15 07:30:49;;;;;;;;;;;20.10;35.60;;;;;;5042283;28;19982;-45
2022/03/15 07:33:16;;;;;;;;;;;20.10;35.60;;;;;;5048431;28;19957;-45
2022/03/15 07:35:42;;;;;;;;;;;20.10;35.50;;;;;;5053218;28;19920;-46
2022/03/15 07:38:09;;;;;;;;;;;20.10;35.60;;;;;;5046009;28;19993;-43
2022/03/15 07:40:38;;;;;;;;;;;20.10;35.50;;;;;;5045527;28;19920;-45
2022/03/15 07:43:05;;;;;;;;;;;20.10;35.50;;;;;;5058538;28;19921;-47
2022/03/15 07:45:32;;;;;;;;;;;20.10;35.50;;;;;;5042287;28;19924;-43
2022/03/15 07:48:00;;;;;;;;;;;20.10;35.50;;;;;;5044212;28;20154;-45
2022/03/15 07:50:27;;;;;;;;;;;20.10;35.50;;;;;;5044933;28;20217;-45
2022/03/15 07:52:55;;;;;;;;;;;20.10;35.50;;;;;;5037487;28;20396;-46
2022/03/15 07:55:22;;;;;;;;;;;20.10;35.50;;;;;;5033875;28;20437;-46
2022/03/15 07:57:49;;;;;;;;;;;20.10;35.50;;;;;;5063663;28;20373;-48
2022/03/15 08:00:16;;;;;;;;;;;20.10;35.50;;;;;;5037812;28;20165;-46
2022/03/15 08:02:43;;;;;;;;;;;20.10;35.50;;;;;;5050840;28;19936;-53
2022/03/15 08:05:11;;;;;;;;;;;20.10;35.60;;;;;;5030787;28;19928;-50
2022/03/15 08:07:38;;;;;;;;;;;20.10;35.50;;;;;;5061382;28;19973;-50
2022/03/15 08:10:06;;;;;;;;;;;20.10;35.40;;;;;;5060496;28;19927;-53
2022/03/15 08:12:33;;;;;;;;;;;20.10;35.40;;;;;;5057783;28;19921;-53
2022/03/15 08:14:59;;;;;;;;;;;20.10;35.40;;;;;;5036616;28;19963;-50
2022/03/15 08:17:26;;;;;;;;;;;20.10;35.40;;;;;;5036646;28;19920;-49
2022/03/15 08:19:53;;;;;;;;;;;20.10;35.40;;;;;;5039658;28;19940;-48
2022/03/15 08:22:21;;;;;;;;;;;20.10;35.40;;;;;;5046857;28;20404;-50
2022/03/15 08:24:48;;;;;;;;;;;20.10;35.40;;;;;;5040706;28;20227;-51
2022/03/15 08:27:15;;;;;;;;;;;20.10;35.40;;;;;;5037174;28;19927;-54
2022/03/15 08:29:42;;;;;;;;;;;20.10;35.40;;;;;;5036896;28;19924;-48
2022/03/15 08:32:08;;;;;;;;;;;20.00;35.40;;;;;;5061800;28;19920;-47
2022/03/15 08:34:36;;;;;;;;;;;20.00;35.40;;;;;;5056643;28;19921;-49
2022/03/15 08:37:03;;;;;;;;;;;20.00;35.40;;;;;;5035199;28;19932;-52
2022/03/15 08:39:31;;;;;;;;;;;20.10;35.50;;;;;;5040664;28;19925;-52
2022/03/15 08:41:58;;;;;;;;;;;20.10;35.50;;;;;;5039518;28;20397;-50
2022/03/15 08:44:24;;;;;;;;;;;20.00;35.40;;;;;;5056518;28;19921;-57
2022/03/15 08:46:51;;;;;;;;;;;20.00;35.40;;;;;;5053866;28;19924;-48
2022/03/15 08:49:18;;;;;;;;;;;20.00;35.40;;;;;;5042493;28;20242;-48
2022/03/15 08:51:47;;;;;;;;;;;20.00;35.40;;;;;;5048826;28;19920;-49
2022/03/15 08:54:14;;;;;;;;;;;20.00;35.40;;;;;;5044046;28;20262;-47
2022/03/15 08:56:42;;;;;;;;;;;20.00;35.40;;;;;;5040954;28;19920;-47
2022/03/15 08:59:09;;;;;;;;;;;20.00;35.40;;;;;;5039267;28;19971;-49
2022/03/15 09:01:36;;;;;;;;;;;20.00;35.40;;;;;;5043770;28;19947;-42
2022/03/15 09:04:02;;;;;;;;;;;20.00;35.40;;;;;;5044376;28;20039;-44
2022/03/15 09:06:29;;;;;;;;;;;20.00;35.50;;;;;;5040801;28;20015;-42
2022/03/15 09:08:57;;;;;;;;;;;20.00;35.50;;;;;;5040300;28;19933;-42
2022/03/15 09:11:23;;;;;;;;;;;20.00;35.50;;;;;;5036019;28;19920;-43
2022/03/15 09:13:52;;;;;;;;;;;20.00;35.40;;;;;;5046807;28;20134;-43
2022/03/15 09:16:18;;;;;;;;;;;20.00;35.40;;;;;;5056226;28;19920;-45
2022/03/15 09:18:45;;;;;;;;;;;20.00;35.40;;;;;;5063579;28;19927;-44
2022/03/15 09:21:14;;;;;;;;;;;20.00;35.40;;;;;;5047952;28;19925;-44
2022/03/15 09:23:40;;;;;;;;;;;20.00;35.40;;;;;;5044306;28;19956;-44
2022/03/15 09:26:07;;;;;;;;;;;20.00;35.40;;;;;;5058986;28;19958;-42
2022/03/15 09:28:34;;;;;;;;;;;20.10;35.50;;;;;;5060697;28;19931;-43
2022/03/15 09:31:02;;;;;;;;;;;20.10;35.50;;;;;;5038660;28;19921;-42
2022/03/15 09:33:29;;;;;;;;;;;20.10;35.50;;;;;;5040546;28;20346;-42
2022/03/15 09:35:56;;;;;;;;;;;20.10;35.40;;;;;;5037727;28;20378;-46
2022/03/15 09:38:25;;;;;;;;;;;20.10;35.50;;;;;;5046513;28;20034;-42
2022/03/15 09:40:53;;;;;;;;;;;20.10;35.50;;;;;;5041775;28;20428;-42
2022/03/15 09:43:20;;;;;;;;;;;20.10;35.50;;;;;;5056723;28;19964;-43
2022/03/15 09:45:46;;;;;;;;;;;20.10;35.50;;;;;;5036479;28;19928;-46
2022/03/15 09:48:15;;;;;;;;;;;20.10;35.50;;;;;;5028601;28;20015;-43
2022/03/15 09:50:42;;;;;;;;;;;20.10;35.50;;;;;;5039056;28;19924;-43
2022/03/15 09:53:09;;;;;;;;;;;20.10;35.40;;;;;;5033857;28;19927;-42
2022/03/15 09:55:36;;;;;;;;;;;20.10;35.40;;;;;;5053486;28;19920;-43
2022/03/15 09:58:03;;;;;;;;;;;20.10;35.40;;;;;;5058110;28;19960;-42
2022/03/15 10:00:36;;;;;;;;;;;20.10;35.40;;;;;;5047309;28;19928;-46
2022/03/15 10:03:04;;;;;;;;;;;20.20;35.50;;;;;;5046408;28;20320;-43
2022/03/15 10:05:32;;;;;;;;;;;20.20;35.50;;;;;;5037451;28;20285;-45
2022/03/15 10:07:59;;;;;;;;;;;20.20;35.50;;;;;;5053500;28;19951;-43
2022/03/15 10:10:26;;;;;;;;;;;20.20;35.50;;;;;;5039653;28;19956;-44
2022/03/15 10:12:53;;;;;;;;;;;20.20;35.50;;;;;;5062574;28;19928;-41
2022/03/15 10:15:21;;;;;;;;;;;20.20;35.50;;;;;;5070429;28;19928;-42
2022/03/15 10:17:48;;;;;;;;;;;20.20;35.50;;;;;;5062715;28;19933;-43
2022/03/15 10:20:17;;;;;;;;;;;20.20;35.50;;;;;;5045718;28;20030;-48
2022/03/15 10:22:55;;;;;;;;;;;20.20;35.50;;;;;;5065877;28;20346;-45
2022/03/15 10:25:22;;;;;;;;;;;20.20;35.60;;;;;;5041960;28;20385;-43
2022/03/15 10:27:55;;;;;;;;;;;20.20;35.60;;;;;;5037318;28;19920;-51
2022/03/15 10:30:22;;;;;;;;;;;20.20;35.60;;;;;;5037627;28;19935;-51
2022/03/15 10:32:50;;;;;;;;;;;20.20;36.30;;;;;;5061960;28;19921;-46
2022/03/15 10:35:17;;;;;;;;;;;20.20;35.70;;;;;;5043317;28;20569;-49
2022/03/15 10:37:44;;;;;;;;;;;20.20;35.80;;;;;;5045692;28;20353;-51
2022/03/15 10:40:13;;;;;;;;;;;20.20;35.80;;;;;;5038898;28;20362;-49
2022/03/15 10:42:42;;;;;;;;;;;20.20;35.80;;;;;;5057153;28;19920;-53
2022/03/15 10:45:15;;;;;;;;;;;20.20;35.90;;;;;;5047359;28;19920;-49
2022/03/15 10:47:47;;;;;;;;;;;20.20;35.90;;;;;;5066344;28;19963;-48
2022/03/15 10:50:16;;;;;;;;;;;20.20;35.90;;;;;;5045118;28;19968;-51
2022/03/15 10:52:44;;;;;;;;;;;20.20;36.00;;;;;;5039852;28;19932;-50
2022/03/15 10:55:13;;;;;;;;;;;20.20;36.00;;;;;;5048889;28;19928;-53
2022/03/15 10:57:44;;;;;;;;;;;20.20;36.00;;;;;;5047733;28;19926;-53
2022/03/15 11:00:12;;;;;;;;;;;20.20;36.00;;;;;;5044886;28;19921;-53
2022/03/15 11:02:42;;;;;;;;;;;20.20;36.00;;;;;;5048036;28;20015;-49
2022/03/15 11:05:08;;;;;;;;;;;20.20;36.00;;;;;;5039532;28;19920;-52
2022/03/15 11:07:39;;;;;;;;;;;20.20;36.00;;;;;;5057933;28;19931;-52
2022/03/15 11:10:10;;;;;;;;;;;20.20;36.10;;;;;;5057260;28;19963;-53
2022/03/15 11:12:39;;;;;;;;;;;20.20;36.10;;;;;;5041438;28;20381;-52
2022/03/15 11:15:07;;;;;;;;;;;20.20;36.10;;;;;;5037513;28;19962;-53
2022/03/15 11:17:37;;;;;;;;;;;20.20;36.20;;;;;;5049635;28;19921;-48
2022/03/15 11:20:05;;;;;;;;;;;20.20;36.10;;;;;;5060808;28;19921;-51
2022/03/15 11:22:34;;;;;;;;;;;20.20;36.20;;;;;;5046039;28;20219;-54
2022/03/15 11:25:03;;;;;;;;;;;20.20;35.80;;;;;;5070146;28;20278;-53
2022/03/15 11:27:30;;;;;;;;;;;20.20;36.30;;;;;;5056869;28;19927;-52
2022/03/15 11:30:01;;;;;;;;;;;20.20;36.30;;;;;;5057546;28;19925;-52
2022/03/15 11:32:27;;;;;;;;;;;20.20;37.00;;;;;;5057597;28;20324;-50
2022/03/15 11:34:54;;;;;;;;;;;20.10;36.30;;;;;;5057325;28;19979;-51
2022/03/15 11:37:20;;;;;;;;;;;20.20;36.40;;;;;;5056462;28;19955;-52
2022/03/15 11:39:47;;;;;;;;;;;20.10;36.40;;;;;;5045179;28;19920;-53
2022/03/15 11:42:14;;;;;;;;;;;20.20;36.40;;;;;;5041623;28;19935;-47
2022/03/15 11:44:44;;;;;;;;;;;20.10;36.40;;;;;;5054243;28;19966;-53
2022/03/15 11:47:15;;;;;;;;;;;20.10;36.40;;;;;;5054811;28;19927;-53
2022/03/15 11:52:50;;;;;;;;;;;20.10;36.40;;;;;;5177513;23;20314;-54
2022/03/15 11:55:18;;;;;;;;;;;20.10;36.40;;;;;;5060415;28;19970;-50
2022/03/15 11:57:47;;;;;;;;;;;20.10;36.50;;;;;;5067298;28;19966;-52
2022/03/15 12:00:31;;;;;;;;;;;20.10;36.50;;;;;;5064642;28;19974;-53
2022/03/15 12:03:02;;;;;;;;;;;20.20;37.20;;;;;;5055851;28;19968;-52
2022/03/15 12:05:30;;;;;;;;;;;20.10;36.50;;;;;;5073884;28;20365;-53
2022/03/15 12:08:11;;;;;;;;;;;20.10;36.50;;;;;;5056755;28;19928;-54
2022/03/15 12:10:38;;;;;;;;;;;20.10;36.60;;;;;;5051627;28;20057;-57
2022/03/15 12:13:05;;;;;;;;;;;20.10;36.60;;;;;;5047033;28;19927;-56
2022/03/15 12:15:36;;;;;;;;;;;20.10;36.70;;;;;;5063125;28;19920;-54
2022/03/15 12:18:23;;;;;;;;;;;20.10;36.70;;;;;;5044775;28;19920;-53
2022/03/15 12:20:59;;;;;;;;;;;20.10;36.70;;;;;;5032225;28;19932;-54
2022/03/15 12:23:26;;;;;;;;;;;20.10;36.70;;;;;;5047153;28;20015;-54
2022/03/15 12:25:54;;;;;;;;;;;20.10;36.70;;;;;;5038403;28;19921;-52
2022/03/15 12:28:27;;;;;;;;;;;20.10;36.80;;;;;;5040938;28;19920;-52
2022/03/15 12:30:53;;;;;;;;;;;20.10;36.80;;;;;;5056028;28;20313;-51
2022/03/15 12:33:26;;;;;;;;;;;20.10;36.80;;;;;;5039887;28;19920;-54
2022/03/15 12:35:58;;;;;;;;;;;20.10;36.80;;;;;;5055295;28;19920;-51
2022/03/15 12:38:32;;;;;;;;;;;20.10;36.90;;;;;;5046490;28;20005;-49
2022/03/15 12:41:00;;;;;;;;;;;20.10;36.90;;;;;;5057736;28;20258;-53
2022/03/15 12:43:26;;;;;;;;;;;20.10;36.90;;;;;;5059317;28;20241;-52
2022/03/15 12:45:53;;;;;;;;;;;20.10;36.90;;;;;;5068502;28;19973;-48
2022/03/15 12:48:29;;;;;;;;;;;20.10;37.00;;;;;;5074985;28;20624;-53
2022/03/15 12:51:01;;;;;;;;;;;20.10;37.00;;;;;;5053359;28;19928;-53
2022/03/15 12:53:34;;;;;;;;;;;20.10;37.00;;;;;;5045400;28;19920;-54
2022/03/15 12:56:01;;;;;;;;;;;20.10;37.00;;;;;;5051687;28;20263;-47
2022/03/15 12:58:28;;;;;;;;;;;20.10;37.00;;;;;;5071005;28;19920;-49
2022/03/15 13:00:55;;;;;;;;;;;20.10;37.20;;;;;;5071865;28;19924;-49
2022/03/15 13:03:22;;;;;;;;;;;20.10;37.20;;;;;;5065837;28;19963;-50
2022/03/15 13:05:51;;;;;;;;;;;20.10;37.20;;;;;;5036046;28;19959;-52
2022/03/15 13:08:20;;;;;;;;;;;20.00;37.20;;;;;;5057119;28;20018;-56
2022/03/15 13:10:47;;;;;;;;;;;20.10;37.20;;;;;;5043385;28;19920;-50
2022/03/15 13:13:24;;;;;;;;;;;20.10;37.20;;;;;;5058210;28;19931;-48
2022/03/15 13:15:51;;;;;;;;;;;20.10;37.30;;;;;;5056198;28;19932;-46
2022/03/15 13:18:18;;;;;;;;;;;20.10;37.30;;;;;;5050069;28;19921;-48
2022/03/15 13:20:45;;;;;;;;;;;20.10;37.40;;;;;;5056454;28;20281;-47
2022/03/15 13:23:13;;;;;;;;;;;20.10;37.40;;;;;;5054251;28;19923;-53
2022/03/15 13:25:42;;;;;;;;;;;20.10;37.40;;;;;;5057062;28;19920;-49
2022/03/15 13:28:16;;;;;;;;;;;20.10;37.40;;;;;;5056519;28;19920;-48
2022/03/15 13:30:43;;;;;;;;;;;20.10;37.40;;;;;;5056311;28;20023;-48
2022/03/15 13:33:13;;;;;;;;;;;20.10;37.50;;;;;;5052932;28;20250;-52
2022/03/15 13:35:40;;;;;;;;;;;20.10;37.50;;;;;;5059539;28;19920;-51
2022/03/15 13:38:16;;;;;;;;;;;20.20;37.60;;;;;;5051996;28;20428;-50
2022/03/15 13:40:44;;;;;;;;;;;20.10;37.60;;;;;;5055976;28;19943;-48
2022/03/15 13:43:14;;;;;;;;;;;20.20;37.60;;;;;;5047564;28;19928;-47
2022/03/15 13:45:41;;;;;;;;;;;20.20;37.70;;;;;;5048102;28;19927;-52
2022/03/15 13:48:08;;;;;;;;;;;20.10;37.60;;;;;;5053195;28;19963;-50
2022/03/15 13:50:34;;;;;;;;;;;20.20;37.70;;;;;;5056662;28;19932;-53
2022/03/15 13:53:02;;;;;;;;;;;20.20;37.70;;;;;;5050380;28;19990;-54
2022/03/15 13:55:30;;;;;;;;;;;20.20;37.70;;;;;;5046424;28;19920;-54
2022/03/15 13:57:57;;;;;;;;;;;20.20;37.70;;;;;;5050281;28;19924;-54
2022/03/15 14:00:28;;;;;;;;;;;20.20;37.70;;;;;;5057519;28;20419;-54
2022/03/15 14:02:56;;;;;;;;;;;20.20;37.70;;;;;;5054145;28;21888;-53
2022/03/15 14:05:24;;;;;;;;;;;20.20;37.70;;;;;;5059420;28;19928;-47
2022/03/15 14:07:59;;;;;;;;;;;20.20;37.70;;;;;;5050745;28;19944;-49
2022/03/15 14:10:26;;;;;;;;;;;20.20;37.70;;;;;;5060509;28;19958;-49
2022/03/15 14:12:55;;;;;;;;;;;20.20;37.70;;;;;;5055379;28;20262;-46
2022/03/15 14:15:23;;;;;;;;;;;20.20;37.70;;;;;;5046886;28;19924;-48
2022/03/15 14:17:50;;;;;;;;;;;20.20;37.70;;;;;;5076694;28;19971;-50
2022/03/15 14:20:17;;;;;;;;;;;20.20;37.70;;;;;;5055694;28;20243;-47
2022/03/15 14:22:45;;;;;;;;;;;20.20;37.70;;;;;;5055189;28;20002;-51
2022/03/15 14:25:20;;;;;;;;;;;20.20;37.70;;;;;;5074934;28;19935;-58